Aurora, Missouri
Current Conditions -  °F | °C
As of 6:15 PM on Thursday 18 Dec 2014 (Local Time) from KHFJ Reporting Station
Overcast Overcast  
Wind Chill: 37°   Ceiling: 400
Heat Index: 37°   Visibility: 7mi
Dew Point: 36°   Wind: 3mph
Humidity: 93%   Direction: 340°NNW
Pressure: 30.17"   Gusts: NA
Location:  36.97°N, 93.72°W
Report Text: KHFJ 190015Z AUTO 34003KT 7SM OVC004 03/02 A3017 RMK AO2
Loading
Personal Weather Stations






























Interactive Weather Map New forecast layout! Learn more

10-Day Weather Forecast

Advertisements
Track Severe Weather on mobile